Skip Navigation Links
NOAA logo - Click to go to the NOAA homepage
NOAA's National Weather Service
Alaska Aviation Weather Unit
  NWS logo - Click to go to the NWS homepage
Left Navbar Graphic     02 AKDT = 10 GMT

   
NOAA is celebrating 200 years of science, service, and stewardship. Visit the NOAA 200th celebration Web site to learn more.
USA.gov is the U.S. Government's official Web portal to all Federal, state and local government Web resources and services.
Facebook
NWS on Facebook

AAWU Home :: Display TAF Add Bookmark
METAR PAMR 270453Z 00000KT 10SM CLR M03/M11 A2960 RMK AO2 SLP025
     T10281106=

METAR PAMR 270553Z 32003KT 10SM CLR M03/M09 A2959 RMK AO2 SLP023
     T10281089 10006 21044 56008=

METAR PAMR 270653Z 00000KT 10SM CLR M06/M09 A2958 RMK AO2 SLP018
     T10561094=

METAR PAMR 270753Z 06005KT 10SM CLR M05/M11 A2957 RMK AO2 SLP016
 T10501111=

METAR PAMR 270853Z 00000KT 10SM CLR M08/M11 A2956 RMK AO2 SLP012
     T10831111 400061106 56010=

METAR PAMR 270953Z 00000KT 10SM CLR M08/M12 A2955 RMK AO2 SLP010
     T10831117=


NOAA's National Weather Service
Alaska Aviation Weather Unit
6930 Sand Lake Road
Anchorage, AK 99502-1845
Disclaimer
Credits
Glossary
Privacy Policy
About Us
Career Opportunities
Contact AAWU Internet Services Site last modified: April, 17th 2012